sensor_id;sensor_type;location;lat;lon;timestamp;temperature;humidity
73547;SHT30;61807;48.384;-4.386;2023-08-31T00:00:44;17.35;80.12
73547;SHT30;61807;48.384;-4.386;2023-08-31T00:03:12;17.35;80.18
73547;SHT30;61807;48.384;-4.386;2023-08-31T00:05:40;17.35;80.50
73547;SHT30;61807;48.384;-4.386;2023-08-31T00:08:06;17.32;80.49
73547;SHT30;61807;48.384;-4.386;2023-08-31T00:10:33;17.32;80.67
73547;SHT30;61807;48.384;-4.386;2023-08-31T00:12:58;17.32;80.80
73547;SHT30;61807;48.384;-4.386;2023-08-31T00:15:24;17.32;80.96
73547;SHT30;61807;48.384;-4.386;2023-08-31T00:17:49;17.28;81.12
73547;SHT30;61807;48.384;-4.386;2023-08-31T00:20:15;17.25;81.08
73547;SHT30;61807;48.384;-4.386;2023-08-31T00:22:41;17.28;81.17
73547;SHT30;61807;48.384;-4.386;2023-08-31T00:25:07;17.28;81.44
73547;SHT30;61807;48.384;-4.386;2023-08-31T00:27:34;17.27;81.38
73547;SHT30;61807;48.384;-4.386;2023-08-31T00:29:59;17.27;81.55
73547;SHT30;61807;48.384;-4.386;2023-08-31T00:32:24;17.25;81.55
73547;SHT30;61807;48.384;-4.386;2023-08-31T00:34:50;17.27;81.63
73547;SHT30;61807;48.384;-4.386;2023-08-31T00:37:15;17.25;82.20
73547;SHT30;61807;48.384;-4.386;2023-08-31T00:39:41;17.22;82.10
73547;SHT30;61807;48.384;-4.386;2023-08-31T00:42:06;17.22;82.34
73547;SHT30;61807;48.384;-4.386;2023-08-31T00:44:32;17.22;82.24
73547;SHT30;61807;48.384;-4.386;2023-08-31T00:46:58;17.27;82.32
73547;SHT30;61807;48.384;-4.386;2023-08-31T00:49:24;17.25;82.36
73547;SHT30;61807;48.384;-4.386;2023-08-31T00:51:49;17.27;82.39
73547;SHT30;61807;48.384;-4.386;2023-08-31T00:54:19;17.27;82.55
73547;SHT30;61807;48.384;-4.386;2023-08-31T00:56:46;17.27;82.76
73547;SHT30;61807;48.384;-4.386;2023-08-31T00:59:17;17.25;82.86
73547;SHT30;61807;48.384;-4.386;2023-08-31T01:01:56;17.27;82.88
73547;SHT30;61807;48.384;-4.386;2023-08-31T01:04:33;17.28;82.94
73547;SHT30;61807;48.384;-4.386;2023-08-31T01:12:13;17.24;83.44
73547;SHT30;61807;48.384;-4.386;2023-08-31T01:15:00;17.27;83.49
73547;SHT30;61807;48.384;-4.386;2023-08-31T01:17:29;17.24;83.72
73547;SHT30;61807;48.384;-4.386;2023-08-31T01:19:58;17.24;84.00
73547;SHT30;61807;48.384;-4.386;2023-08-31T01:24:52;17.24;83.95
73547;SHT30;61807;48.384;-4.386;2023-08-31T01:27:19;17.22;84.25
73547;SHT30;61807;48.384;-4.386;2023-08-31T01:29:44;17.24;84.32
73547;SHT30;61807;48.384;-4.386;2023-08-31T01:32:09;17.22;84.44
73547;SHT30;61807;48.384;-4.386;2023-08-31T01:34:35;17.22;84.38
73547;SHT30;61807;48.384;-4.386;2023-08-31T01:37:03;17.25;84.32
73547;SHT30;61807;48.384;-4.386;2023-08-31T01:39:33;17.27;84.25
73547;SHT30;61807;48.384;-4.386;2023-08-31T01:42:03;17.28;84.46
73547;SHT30;61807;48.384;-4.386;2023-08-31T01:44:30;17.28;84.53
73547;SHT30;61807;48.384;-4.386;2023-08-31T01:47:03;17.28;84.56
73547;SHT30;61807;48.384;-4.386;2023-08-31T01:49:40;17.31;84.55
73547;SHT30;61807;48.384;-4.386;2023-08-31T01:52:06;17.32;84.57
73547;SHT30;61807;48.384;-4.386;2023-08-31T01:54:32;17.34;84.75
73547;SHT30;61807;48.384;-4.386;2023-08-31T01:56:57;17.35;84.77
73547;SHT30;61807;48.384;-4.386;2023-08-31T01:59:23;17.36;84.67
73547;SHT30;61807;48.384;-4.386;2023-08-31T02:01:48;17.36;84.84
73547;SHT30;61807;48.384;-4.386;2023-08-31T02:04:14;17.41;84.82
73547;SHT30;61807;48.384;-4.386;2023-08-31T02:06:39;17.41;84.99
73547;SHT30;61807;48.384;-4.386;2023-08-31T02:09:05;17.41;85.08
73547;SHT30;61807;48.384;-4.386;2023-08-31T02:11:31;17.43;85.14
73547;SHT30;61807;48.384;-4.386;2023-08-31T02:13:57;17.42;85.14
73547;SHT30;61807;48.384;-4.386;2023-08-31T02:16:22;17.48;85.22
73547;SHT30;61807;48.384;-4.386;2023-08-31T02:18:48;17.49;85.20
73547;SHT30;61807;48.384;-4.386;2023-08-31T02:21:13;17.52;85.23
73547;SHT30;61807;48.384;-4.386;2023-08-31T02:23:39;17.53;85.26
73547;SHT30;61807;48.384;-4.386;2023-08-31T02:26:04;17.55;85.24
73547;SHT30;61807;48.384;-4.386;2023-08-31T02:28:29;17.59;85.29
73547;SHT30;61807;48.384;-4.386;2023-08-31T02:31:00;17.63;85.36
73547;SHT30;61807;48.384;-4.386;2023-08-31T02:33:25;17.65;85.35
73547;SHT30;61807;48.384;-4.386;2023-08-31T02:35:51;17.69;85.32
73547;SHT30;61807;48.384;-4.386;2023-08-31T02:38:16;17.75;85.37
73547;SHT30;61807;48.384;-4.386;2023-08-31T02:40:41;17.79;85.48
73547;SHT30;61807;48.384;-4.386;2023-08-31T02:43:07;17.80;85.45
73547;SHT30;61807;48.384;-4.386;2023-08-31T02:45:32;17.85;85.58
73547;SHT30;61807;48.384;-4.386;2023-08-31T02:47:57;17.86;85.52
73547;SHT30;61807;48.384;-4.386;2023-08-31T02:50:23;17.87;85.55
73547;SHT30;61807;48.384;-4.386;2023-08-31T02:52:48;17.89;85.54
73547;SHT30;61807;48.384;-4.386;2023-08-31T02:55:14;17.90;85.59
73547;SHT30;61807;48.384;-4.386;2023-08-31T02:57:39;17.92;85.56
73547;SHT30;61807;48.384;-4.386;2023-08-31T03:00:05;17.93;85.64
73547;SHT30;61807;48.384;-4.386;2023-08-31T03:02:35;17.92;85.55
73547;SHT30;61807;48.384;-4.386;2023-08-31T03:05:00;17.94;85.54
73547;SHT30;61807;48.384;-4.386;2023-08-31T03:07:26;17.94;85.50
73547;SHT30;61807;48.384;-4.386;2023-08-31T03:09:52;17.96;85.62
73547;SHT30;61807;48.384;-4.386;2023-08-31T03:12:17;17.94;85.56
73547;SHT30;61807;48.384;-4.386;2023-08-31T03:14:43;17.96;85.57
73547;SHT30;61807;48.384;-4.386;2023-08-31T03:17:08;17.94;85.54
73547;SHT30;61807;48.384;-4.386;2023-08-31T03:19:33;17.96;85.46
73547;SHT30;61807;48.384;-4.386;2023-08-31T03:21:59;17.97;85.47
73547;SHT30;61807;48.384;-4.386;2023-08-31T03:24:24;17.96;85.39
73547;SHT30;61807;48.384;-4.386;2023-08-31T03:26:49;17.96;85.40
73547;SHT30;61807;48.384;-4.386;2023-08-31T03:29:15;17.93;85.37
73547;SHT30;61807;48.384;-4.386;2023-08-31T03:31:40;17.93;85.35
73547;SHT30;61807;48.384;-4.386;2023-08-31T03:34:06;17.90;85.29
73547;SHT30;61807;48.384;-4.386;2023-08-31T03:36:31;17.89;85.29
73547;SHT30;61807;48.384;-4.386;2023-08-31T03:38:56;17.87;85.33
73547;SHT30;61807;48.384;-4.386;2023-08-31T03:41:22;17.86;85.30
73547;SHT30;61807;48.384;-4.386;2023-08-31T03:43:47;17.86;85.28
73547;SHT30;61807;48.384;-4.386;2023-08-31T03:46:13;17.86;85.31
73547;SHT30;61807;48.384;-4.386;2023-08-31T03:48:38;17.85;85.29
73547;SHT30;61807;48.384;-4.386;2023-08-31T03:51:03;17.83;85.23
73547;SHT30;61807;48.384;-4.386;2023-08-31T03:53:29;17.85;85.26
73547;SHT30;61807;48.384;-4.386;2023-08-31T03:55:54;17.86;85.22
73547;SHT30;61807;48.384;-4.386;2023-08-31T03:58:19;17.86;85.20
73547;SHT30;61807;48.384;-4.386;2023-08-31T04:00:49;17.87;85.18
73547;SHT30;61807;48.384;-4.386;2023-08-31T04:03:14;17.87;85.22
73547;SHT30;61807;48.384;-4.386;2023-08-31T04:05:39;17.87;85.19
73547;SHT30;61807;48.384;-4.386;2023-08-31T04:08:05;17.87;85.15
73547;SHT30;61807;48.384;-4.386;2023-08-31T04:10:31;17.89;85.11
73547;SHT30;61807;48.384;-4.386;2023-08-31T04:12:57;17.89;85.11
73547;SHT30;61807;48.384;-4.386;2023-08-31T04:15:23;17.85;85.15
73547;SHT30;61807;48.384;-4.386;2023-08-31T04:17:48;17.87;85.21
73547;SHT30;61807;48.384;-4.386;2023-08-31T04:20:15;17.87;85.24
73547;SHT30;61807;48.384;-4.386;2023-08-31T04:22:40;17.86;85.22
73547;SHT30;61807;48.384;-4.386;2023-08-31T04:25:06;17.87;85.22
73547;SHT30;61807;48.384;-4.386;2023-08-31T04:27:31;17.94;85.20
73547;SHT30;61807;48.384;-4.386;2023-08-31T04:30:00;17.90;85.17
73547;SHT30;61807;48.384;-4.386;2023-08-31T04:32:26;17.94;85.17
73547;SHT30;61807;48.384;-4.386;2023-08-31T04:34:52;17.94;85.13
73547;SHT30;61807;48.384;-4.386;2023-08-31T04:37:17;17.94;85.19
73547;SHT30;61807;48.384;-4.386;2023-08-31T04:39:43;17.94;85.21
73547;SHT30;61807;48.384;-4.386;2023-08-31T04:42:08;17.94;85.26
73547;SHT30;61807;48.384;-4.386;2023-08-31T04:44:34;17.96;85.28
73547;SHT30;61807;48.384;-4.386;2023-08-31T04:46:59;17.96;85.29
73547;SHT30;61807;48.384;-4.386;2023-08-31T04:49:25;17.97;85.30
73547;SHT30;61807;48.384;-4.386;2023-08-31T04:51:52;18.00;85.39
73547;SHT30;61807;48.384;-4.386;2023-08-31T04:54:17;18.00;85.42
73547;SHT30;61807;48.384;-4.386;2023-08-31T04:56:43;17.99;85.38
73547;SHT30;61807;48.384;-4.386;2023-08-31T04:59:08;18.00;85.38
73547;SHT30;61807;48.384;-4.386;2023-08-31T05:01:34;18.00;85.39
73547;SHT30;61807;48.384;-4.386;2023-08-31T05:03:59;18.03;85.44
73547;SHT30;61807;48.384;-4.386;2023-08-31T05:06:25;18.04;85.43
73547;SHT30;61807;48.384;-4.386;2023-08-31T05:08:51;18.04;85.48
73547;SHT30;61807;48.384;-4.386;2023-08-31T05:11:16;18.04;85.53
73547;SHT30;61807;48.384;-4.386;2023-08-31T05:13:42;18.04;85.61
73547;SHT30;61807;48.384;-4.386;2023-08-31T05:16:10;18.09;85.62
73547;SHT30;61807;48.384;-4.386;2023-08-31T05:18:38;18.07;85.65
73547;SHT30;61807;48.384;-4.386;2023-08-31T05:21:03;18.09;85.70
73547;SHT30;61807;48.384;-4.386;2023-08-31T05:23:29;18.13;85.79
73547;SHT30;61807;48.384;-4.386;2023-08-31T05:25:55;18.17;85.82
73547;SHT30;61807;48.384;-4.386;2023-08-31T05:28:22;18.20;85.87
73547;SHT30;61807;48.384;-4.386;2023-08-31T05:30:52;18.20;86.05
73547;SHT30;61807;48.384;-4.386;2023-08-31T05:33:18;18.23;85.99
73547;SHT30;61807;48.384;-4.386;2023-08-31T05:35:44;18.21;85.98
73547;SHT30;61807;48.384;-4.386;2023-08-31T05:38:09;18.23;86.08
73547;SHT30;61807;48.384;-4.386;2023-08-31T05:40:35;18.27;86.05
73547;SHT30;61807;48.384;-4.386;2023-08-31T05:43:00;18.26;86.12
73547;SHT30;61807;48.384;-4.386;2023-08-31T05:45:25;18.28;86.22
73547;SHT30;61807;48.384;-4.386;2023-08-31T05:47:51;18.27;86.16
73547;SHT30;61807;48.384;-4.386;2023-08-31T05:50:16;18.26;86.22
73547;SHT30;61807;48.384;-4.386;2023-08-31T05:52:42;18.28;86.25
73547;SHT30;61807;48.384;-4.386;2023-08-31T05:55:09;18.30;86.24
73547;SHT30;61807;48.384;-4.386;2023-08-31T05:57:35;18.31;86.27
73547;SHT30;61807;48.384;-4.386;2023-08-31T06:00:01;18.31;86.29
73547;SHT30;61807;48.384;-4.386;2023-08-31T06:02:26;18.33;86.29
73547;SHT30;61807;48.384;-4.386;2023-08-31T06:04:51;18.34;86.30
73547;SHT30;61807;48.384;-4.386;2023-08-31T06:07:17;18.37;86.30
73547;SHT30;61807;48.384;-4.386;2023-08-31T06:09:42;18.40;86.36
73547;SHT30;61807;48.384;-4.386;2023-08-31T06:12:08;18.40;86.36
73547;SHT30;61807;48.384;-4.386;2023-08-31T06:14:33;18.40;86.38
73547;SHT30;61807;48.384;-4.386;2023-08-31T06:16:59;18.43;86.40
73547;SHT30;61807;48.384;-4.386;2023-08-31T06:19:24;18.44;86.32
73547;SHT30;61807;48.384;-4.386;2023-08-31T06:21:50;18.45;86.40
73547;SHT30;61807;48.384;-4.386;2023-08-31T06:24:15;18.45;86.43
73547;SHT30;61807;48.384;-4.386;2023-08-31T06:26:41;18.47;86.39
73547;SHT30;61807;48.384;-4.386;2023-08-31T06:29:06;18.50;86.43
73547;SHT30;61807;48.384;-4.386;2023-08-31T06:31:34;18.51;86.41
73547;SHT30;61807;48.384;-4.386;2023-08-31T06:33:59;18.51;86.44
73547;SHT30;61807;48.384;-4.386;2023-08-31T06:36:25;18.52;86.44
73547;SHT30;61807;48.384;-4.386;2023-08-31T06:38:50;18.54;86.45
73547;SHT30;61807;48.384;-4.386;2023-08-31T06:41:15;18.55;86.41
73547;SHT30;61807;48.384;-4.386;2023-08-31T06:43:41;18.58;86.36
73547;SHT30;61807;48.384;-4.386;2023-08-31T06:46:06;18.59;86.39
73547;SHT30;61807;48.384;-4.386;2023-08-31T06:48:32;18.58;86.41
73547;SHT30;61807;48.384;-4.386;2023-08-31T06:50:57;18.59;86.41
73547;SHT30;61807;48.384;-4.386;2023-08-31T06:53:23;18.61;86.42
73547;SHT30;61807;48.384;-4.386;2023-08-31T06:55:48;18.61;86.36
73547;SHT30;61807;48.384;-4.386;2023-08-31T06:58:13;18.64;86.38
73547;SHT30;61807;48.384;-4.386;2023-08-31T07:00:39;18.62;86.38
73547;SHT30;61807;48.384;-4.386;2023-08-31T07:03:04;18.59;86.38
73547;SHT30;61807;48.384;-4.386;2023-08-31T07:05:34;18.59;86.41
73547;SHT30;61807;48.384;-4.386;2023-08-31T07:08:00;18.61;86.40
73547;SHT30;61807;48.384;-4.386;2023-08-31T07:10:27;18.62;86.40
73547;SHT30;61807;48.384;-4.386;2023-08-31T07:12:52;18.61;86.41
73547;SHT30;61807;48.384;-4.386;2023-08-31T07:15:18;18.64;86.36
73547;SHT30;61807;48.384;-4.386;2023-08-31T07:17:43;18.62;86.35
73547;SHT30;61807;48.384;-4.386;2023-08-31T07:20:09;18.61;86.38
73547;SHT30;61807;48.384;-4.386;2023-08-31T07:22:36;18.64;86.42
73547;SHT30;61807;48.384;-4.386;2023-08-31T07:25:01;18.64;86.39
73547;SHT30;61807;48.384;-4.386;2023-08-31T07:27:28;18.64;86.35
73547;SHT30;61807;48.384;-4.386;2023-08-31T07:29:54;18.67;86.36
73547;SHT30;61807;48.384;-4.386;2023-08-31T07:32:20;18.68;86.40
73547;SHT30;61807;48.384;-4.386;2023-08-31T07:34:45;18.68;86.38
73547;SHT30;61807;48.384;-4.386;2023-08-31T07:37:10;18.71;86.39
73547;SHT30;61807;48.384;-4.386;2023-08-31T07:39:36;18.75;86.34
73547;SHT30;61807;48.384;-4.386;2023-08-31T07:42:01;18.73;86.36
73547;SHT30;61807;48.384;-4.386;2023-08-31T07:44:27;18.76;86.32
73547;SHT30;61807;48.384;-4.386;2023-08-31T07:46:53;18.78;86.33
73547;SHT30;61807;48.384;-4.386;2023-08-31T07:49:18;18.81;86.30
73547;SHT30;61807;48.384;-4.386;2023-08-31T07:51:43;18.87;86.30
73547;SHT30;61807;48.384;-4.386;2023-08-31T07:54:09;18.89;86.23
73547;SHT30;61807;48.384;-4.386;2023-08-31T07:56:34;18.94;86.21
73547;SHT30;61807;48.384;-4.386;2023-08-31T07:58:59;18.99;86.20
73547;SHT30;61807;48.384;-4.386;2023-08-31T08:01:25;19.00;86.15
73547;SHT30;61807;48.384;-4.386;2023-08-31T08:03:50;19.06;86.12
73547;SHT30;61807;48.384;-4.386;2023-08-31T08:06:16;19.12;86.09
73547;SHT30;61807;48.384;-4.386;2023-08-31T08:08:41;19.16;86.04
73547;SHT30;61807;48.384;-4.386;2023-08-31T08:11:06;19.20;86.03
73547;SHT30;61807;48.384;-4.386;2023-08-31T08:13:32;19.23;86.02
73547;SHT30;61807;48.384;-4.386;2023-08-31T08:15:57;19.30;85.98
73547;SHT30;61807;48.384;-4.386;2023-08-31T08:18:23;19.33;85.88
73547;SHT30;61807;48.384;-4.386;2023-08-31T08:20:50;19.43;85.86
73547;SHT30;61807;48.384;-4.386;2023-08-31T08:23:15;19.49;85.81
73547;SHT30;61807;48.384;-4.386;2023-08-31T08:25:41;19.50;85.63
73547;SHT30;61807;48.384;-4.386;2023-08-31T08:28:06;19.54;85.57
73547;SHT30;61807;48.384;-4.386;2023-08-31T08:30:32;19.57;85.60
73547;SHT30;61807;48.384;-4.386;2023-08-31T08:32:57;19.58;85.52
73547;SHT30;61807;48.384;-4.386;2023-08-31T08:35:24;19.56;85.54
73547;SHT30;61807;48.384;-4.386;2023-08-31T08:37:49;19.60;85.49
73547;SHT30;61807;48.384;-4.386;2023-08-31T08:40:14;19.60;85.42
73547;SHT30;61807;48.384;-4.386;2023-08-31T08:42:43;19.64;85.37
73547;SHT30;61807;48.384;-4.386;2023-08-31T08:45:14;19.63;85.35
73547;SHT30;61807;48.384;-4.386;2023-08-31T08:47:44;19.64;85.29
73547;SHT30;61807;48.384;-4.386;2023-08-31T08:50:11;19.67;85.13
73547;SHT30;61807;48.384;-4.386;2023-08-31T08:52:38;19.64;85.11
73547;SHT30;61807;48.384;-4.386;2023-08-31T08:55:04;19.64;85.15
73547;SHT30;61807;48.384;-4.386;2023-08-31T08:57:33;19.64;85.17
73547;SHT30;61807;48.384;-4.386;2023-08-31T08:59:59;19.67;85.16
73547;SHT30;61807;48.384;-4.386;2023-08-31T09:02:24;19.67;85.15
73547;SHT30;61807;48.384;-4.386;2023-08-31T09:04:50;19.66;85.06
73547;SHT30;61807;48.384;-4.386;2023-08-31T09:07:22;19.64;85.01
73547;SHT30;61807;48.384;-4.386;2023-08-31T09:09:53;19.60;85.04
73547;SHT30;61807;48.384;-4.386;2023-08-31T09:12:21;19.60;85.02
73547;SHT30;61807;48.384;-4.386;2023-08-31T09:15:03;19.57;84.97
73547;SHT30;61807;48.384;-4.386;2023-08-31T09:17:42;19.57;85.02
73547;SHT30;61807;48.384;-4.386;2023-08-31T09:20:12;19.57;84.99
73547;SHT30;61807;48.384;-4.386;2023-08-31T09:22:42;19.58;85.02
73547;SHT30;61807;48.384;-4.386;2023-08-31T09:25:08;19.58;84.95
73547;SHT30;61807;48.384;-4.386;2023-08-31T09:27:37;19.57;84.93
73547;SHT30;61807;48.384;-4.386;2023-08-31T09:30:05;19.60;84.91
73547;SHT30;61807;48.384;-4.386;2023-08-31T09:32:31;19.54;84.80
73547;SHT30;61807;48.384;-4.386;2023-08-31T09:34:56;19.56;84.85
73547;SHT30;61807;48.384;-4.386;2023-08-31T09:37:22;19.53;84.89
73547;SHT30;61807;48.384;-4.386;2023-08-31T09:39:47;19.50;84.89
73547;SHT30;61807;48.384;-4.386;2023-08-31T09:42:12;19.51;84.91
73547;SHT30;61807;48.384;-4.386;2023-08-31T09:44:43;19.51;84.98
73547;SHT30;61807;48.384;-4.386;2023-08-31T09:47:09;19.47;84.92
73547;SHT30;61807;48.384;-4.386;2023-08-31T09:49:36;19.49;84.86
73547;SHT30;61807;48.384;-4.386;2023-08-31T09:52:03;19.46;84.93
73547;SHT30;61807;48.384;-4.386;2023-08-31T09:54:30;19.47;85.00
73547;SHT30;61807;48.384;-4.386;2023-08-31T09:56:59;19.50;84.99
73547;SHT30;61807;48.384;-4.386;2023-08-31T09:59:26;19.51;84.97
73547;SHT30;61807;48.384;-4.386;2023-08-31T10:01:52;19.57;85.07
73547;SHT30;61807;48.384;-4.386;2023-08-31T10:04:18;19.70;85.07
73547;SHT30;61807;48.384;-4.386;2023-08-31T10:06:43;19.78;84.89
73547;SHT30;61807;48.384;-4.386;2023-08-31T10:09:09;19.84;84.68
73547;SHT30;61807;48.384;-4.386;2023-08-31T10:11:38;19.87;84.59
73547;SHT30;61807;48.384;-4.386;2023-08-31T10:14:05;19.85;84.59
73547;SHT30;61807;48.384;-4.386;2023-08-31T10:16:31;19.85;84.46
73547;SHT30;61807;48.384;-4.386;2023-08-31T10:18:57;19.87;84.59
73547;SHT30;61807;48.384;-4.386;2023-08-31T10:21:23;19.91;84.45
73547;SHT30;61807;48.384;-4.386;2023-08-31T10:23:49;19.95;84.26
73547;SHT30;61807;48.384;-4.386;2023-08-31T10:26:29;20.01;84.22
73547;SHT30;61807;48.384;-4.386;2023-08-31T10:28:55;20.01;84.13
73547;SHT30;61807;48.384;-4.386;2023-08-31T10:31:22;20.05;84.14
73547;SHT30;61807;48.384;-4.386;2023-08-31T10:34:01;20.14;84.00
73547;SHT30;61807;48.384;-4.386;2023-08-31T10:36:39;20.24;83.86
73547;SHT30;61807;48.384;-4.386;2023-08-31T10:39:16;20.30;83.70
73547;SHT30;61807;48.384;-4.386;2023-08-31T10:41:52;20.36;83.44
73547;SHT30;61807;48.384;-4.386;2023-08-31T10:44:25;20.42;83.39
73547;SHT30;61807;48.384;-4.386;2023-08-31T10:46:51;20.47;83.22
73547;SHT30;61807;48.384;-4.386;2023-08-31T10:49:23;20.62;83.19
73547;SHT30;61807;48.384;-4.386;2023-08-31T10:51:55;20.76;83.00
73547;SHT30;61807;48.384;-4.386;2023-08-31T10:59:19;21.11;82.36
73547;SHT30;61807;48.384;-4.386;2023-08-31T11:02:30;21.32;81.99
73547;SHT30;61807;48.384;-4.386;2023-08-31T11:07:29;21.55;81.36
73547;SHT30;61807;48.384;-4.386;2023-08-31T11:12:50;21.75;80.68
73547;SHT30;61807;48.384;-4.386;2023-08-31T11:15:18;21.85;80.54
73547;SHT30;61807;48.384;-4.386;2023-08-31T11:17:44;21.97;80.45
73547;SHT30;61807;48.384;-4.386;2023-08-31T11:20:16;22.07;80.05
73547;SHT30;61807;48.384;-4.386;2023-08-31T11:22:43;22.11;79.83
73547;SHT30;61807;48.384;-4.386;2023-08-31T11:25:10;22.14;79.55
73547;SHT30;61807;48.384;-4.386;2023-08-31T11:27:36;22.20;79.48
73547;SHT30;61807;48.384;-4.386;2023-08-31T11:30:03;22.18;79.28
73547;SHT30;61807;48.384;-4.386;2023-08-31T11:32:29;22.25;79.23
73547;SHT30;61807;48.384;-4.386;2023-08-31T11:34:54;22.38;79.07
73547;SHT30;61807;48.384;-4.386;2023-08-31T11:37:20;22.47;78.84
73547;SHT30;61807;48.384;-4.386;2023-08-31T11:39:53;22.51;78.73
73547;SHT30;61807;48.384;-4.386;2023-08-31T11:42:20;22.51;78.78
73547;SHT30;61807;48.384;-4.386;2023-08-31T11:44:50;22.47;78.65
73547;SHT30;61807;48.384;-4.386;2023-08-31T11:47:18;22.41;78.70
73547;SHT30;61807;48.384;-4.386;2023-08-31T11:49:45;22.43;78.63
73547;SHT30;61807;48.384;-4.386;2023-08-31T11:52:12;22.38;78.70
73547;SHT30;61807;48.384;-4.386;2023-08-31T11:54:38;22.33;78.22
73547;SHT30;61807;48.384;-4.386;2023-08-31T11:57:07;22.30;78.31
73547;SHT30;61807;48.384;-4.386;2023-08-31T11:59:34;22.21;78.20
73547;SHT30;61807;48.384;-4.386;2023-08-31T12:02:00;22.17;78.21
73547;SHT30;61807;48.384;-4.386;2023-08-31T12:04:26;22.20;78.09
73547;SHT30;61807;48.384;-4.386;2023-08-31T12:06:52;22.22;78.00
73547;SHT30;61807;48.384;-4.386;2023-08-31T12:09:20;22.21;77.65
73547;SHT30;61807;48.384;-4.386;2023-08-31T12:11:52;22.17;77.52
73547;SHT30;61807;48.384;-4.386;2023-08-31T12:14:21;22.14;77.39
73547;SHT30;61807;48.384;-4.386;2023-08-31T12:16:48;22.10;77.79
73547;SHT30;61807;48.384;-4.386;2023-08-31T12:19:13;22.09;77.69
73547;SHT30;61807;48.384;-4.386;2023-08-31T12:21:39;22.03;77.75
73547;SHT30;61807;48.384;-4.386;2023-08-31T12:24:05;22.00;77.51
73547;SHT30;61807;48.384;-4.386;2023-08-31T12:26:31;21.93;77.79
73547;SHT30;61807;48.384;-4.386;2023-08-31T12:28:57;21.90;77.97
73547;SHT30;61807;48.384;-4.386;2023-08-31T12:31:23;21.90;77.84
73547;SHT30;61807;48.384;-4.386;2023-08-31T12:33:48;21.92;77.94
73547;SHT30;61807;48.384;-4.386;2023-08-31T12:36:14;21.92;77.79
73547;SHT30;61807;48.384;-4.386;2023-08-31T12:38:39;21.96;77.89
73547;SHT30;61807;48.384;-4.386;2023-08-31T12:41:05;21.97;77.76
73547;SHT30;61807;48.384;-4.386;2023-08-31T12:43:30;21.93;77.88
73547;SHT30;61807;48.384;-4.386;2023-08-31T12:45:56;21.94;78.00
73547;SHT30;61807;48.384;-4.386;2023-08-31T12:48:22;21.97;77.67
73547;SHT30;61807;48.384;-4.386;2023-08-31T12:50:47;21.89;77.53
73547;SHT30;61807;48.384;-4.386;2023-08-31T12:53:15;21.82;77.65
73547;SHT30;61807;48.384;-4.386;2023-08-31T12:55:41;21.76;77.89
73547;SHT30;61807;48.384;-4.386;2023-08-31T12:58:07;21.93;77.99
73547;SHT30;61807;48.384;-4.386;2023-08-31T13:00:32;22.18;77.57
73547;SHT30;61807;48.384;-4.386;2023-08-31T13:02:59;22.44;77.15
73547;SHT30;61807;48.384;-4.386;2023-08-31T13:05:26;22.59;76.73
73547;SHT30;61807;48.384;-4.386;2023-08-31T13:07:54;22.91;76.49
73547;SHT30;61807;48.384;-4.386;2023-08-31T13:10:19;23.20;75.59
73547;SHT30;61807;48.384;-4.386;2023-08-31T13:12:45;23.24;75.01
73547;SHT30;61807;48.384;-4.386;2023-08-31T13:15:10;23.24;74.93
73547;SHT30;61807;48.384;-4.386;2023-08-31T13:17:36;23.31;74.98
73547;SHT30;61807;48.384;-4.386;2023-08-31T13:20:01;23.56;74.60
73547;SHT30;61807;48.384;-4.386;2023-08-31T13:22:28;23.63;74.11
73547;SHT30;61807;48.384;-4.386;2023-08-31T13:24:53;23.56;73.97
73547;SHT30;61807;48.384;-4.386;2023-08-31T13:27:19;23.43;74.02
73547;SHT30;61807;48.384;-4.386;2023-08-31T13:29:44;23.27;74.20
73547;SHT30;61807;48.384;-4.386;2023-08-31T13:32:10;23.22;74.31
73547;SHT30;61807;48.384;-4.386;2023-08-31T13:34:36;23.22;74.69
73547;SHT30;61807;48.384;-4.386;2023-08-31T13:37:04;23.15;74.66
73547;SHT30;61807;48.384;-4.386;2023-08-31T13:39:33;23.05;74.68
73547;SHT30;61807;48.384;-4.386;2023-08-31T13:41:58;22.96;74.79
73547;SHT30;61807;48.384;-4.386;2023-08-31T13:44:24;22.92;74.94
73547;SHT30;61807;48.384;-4.386;2023-08-31T13:46:49;22.89;75.09
73547;SHT30;61807;48.384;-4.386;2023-08-31T13:49:15;22.87;75.13
73547;SHT30;61807;48.384;-4.386;2023-08-31T13:51:41;22.91;74.92
73547;SHT30;61807;48.384;-4.386;2023-08-31T13:54:07;22.95;75.20
73547;SHT30;61807;48.384;-4.386;2023-08-31T13:56:33;23.05;74.98
73547;SHT30;61807;48.384;-4.386;2023-08-31T13:58:59;23.09;74.81
73547;SHT30;61807;48.384;-4.386;2023-08-31T14:01:25;23.16;74.61
73547;SHT30;61807;48.384;-4.386;2023-08-31T14:03:50;23.12;74.62
73547;SHT30;61807;48.384;-4.386;2023-08-31T14:06:16;23.05;74.59
73547;SHT30;61807;48.384;-4.386;2023-08-31T14:08:41;22.92;74.64
73547;SHT30;61807;48.384;-4.386;2023-08-31T14:11:06;22.87;74.70
73547;SHT30;61807;48.384;-4.386;2023-08-31T14:13:32;22.79;74.83
73547;SHT30;61807;48.384;-4.386;2023-08-31T14:15:57;22.78;74.90
73547;SHT30;61807;48.384;-4.386;2023-08-31T14:18:23;22.81;74.95
73547;SHT30;61807;48.384;-4.386;2023-08-31T14:20:50;22.85;74.73
73547;SHT30;61807;48.384;-4.386;2023-08-31T14:23:16;22.85;74.61
73547;SHT30;61807;48.384;-4.386;2023-08-31T14:25:41;22.81;74.64
73547;SHT30;61807;48.384;-4.386;2023-08-31T14:28:07;22.72;74.79
73547;SHT30;61807;48.384;-4.386;2023-08-31T14:30:32;22.69;74.80
73547;SHT30;61807;48.384;-4.386;2023-08-31T14:33:00;22.72;74.89
73547;SHT30;61807;48.384;-4.386;2023-08-31T14:35:25;22.98;75.11
73547;SHT30;61807;48.384;-4.386;2023-08-31T14:37:50;23.23;74.36
73547;SHT30;61807;48.384;-4.386;2023-08-31T14:40:16;23.31;73.93
73547;SHT30;61807;48.384;-4.386;2023-08-31T14:42:41;23.33;73.65
73547;SHT30;61807;48.384;-4.386;2023-08-31T14:45:07;23.24;73.81
73547;SHT30;61807;48.384;-4.386;2023-08-31T14:47:32;23.17;73.95
73547;SHT30;61807;48.384;-4.386;2023-08-31T14:49:58;23.10;73.55
73547;SHT30;61807;48.384;-4.386;2023-08-31T14:52:23;22.98;73.99
73547;SHT30;61807;48.384;-4.386;2023-08-31T14:54:49;22.87;74.32
73547;SHT30;61807;48.384;-4.386;2023-08-31T14:57:14;22.79;74.43
73547;SHT30;61807;48.384;-4.386;2023-08-31T14:59:40;22.75;74.47
73547;SHT30;61807;48.384;-4.386;2023-08-31T15:02:06;22.64;74.57
73547;SHT30;61807;48.384;-4.386;2023-08-31T15:04:32;22.58;74.67
73547;SHT30;61807;48.384;-4.386;2023-08-31T15:06:57;22.50;74.78
73547;SHT30;61807;48.384;-4.386;2023-08-31T15:09:23;22.44;74.80
73547;SHT30;61807;48.384;-4.386;2023-08-31T15:11:49;22.33;74.94
73547;SHT30;61807;48.384;-4.386;2023-08-31T15:14:15;22.27;75.26
73547;SHT30;61807;48.384;-4.386;2023-08-31T15:16:40;22.24;75.43
73547;SHT30;61807;48.384;-4.386;2023-08-31T15:19:06;22.22;75.22
73547;SHT30;61807;48.384;-4.386;2023-08-31T15:21:32;22.20;75.35
73547;SHT30;61807;48.384;-4.386;2023-08-31T15:23:57;22.16;75.40
73547;SHT30;61807;48.384;-4.386;2023-08-31T15:26:22;22.07;75.28
73547;SHT30;61807;48.384;-4.386;2023-08-31T15:28:48;21.93;75.63